WMKC

Details ICAO WMKC (KBR)
Name Kota Bahru Sultan Ismail Petra
Region Malaysia (Peninsular Malaysia)
Timezone Asia/Kuala_Lumpur (UTC+8.0)
Plans Departing 31
Arriving 43
Stats Elevation 16 ft / 5 m (AMSL)
Location 6.166851° 102.293014°
Runways 1
Magnetic Variation 0.119° W
Sunrise 2017-12-15 23:14:44 UTC / 2017-12-16 07:14:44 Local
Sunset 2017-12-16 11:00:41 UTC / 2017-12-16 19:00:41 Local
Advertisement - Login to hide

Runways

ID Width Length Bearing (true) Bearing (mag) Surface Threshold Offset Overrun Length
10 150 ft / 46 m 6,978 ft / 2,127 m 99.73° 99.85° Asphalt 500 ft / 152 m 0 ft / 0 m
28 150 ft / 46 m 6,978 ft / 2,127 m 279.73° 279.85° Asphalt 200 ft / 61 m 260 ft / 79 m

Approach Navaids

Runway Type Ident Frequency Range Bearing (true) Bearing (mag) Slope Elevation
10 Localiser IKB 109.30 MHz 18 nm / 33 km 99.59° 99.71° - 16 ft / 5 m (AMSL)
10 Glidescope IKB 109.30 MHz 10 nm / 19 km 99.73° 99.85° 3.00° 16 ft / 5 m (AMSL)
10 DME IKB 109.30 MHz 18 nm / 33 km - - - 16 ft / 5 m (AMSL)

Map

Weather


0- 5 10 15 20 25 30 35+ Temperature / ° C

Clouds and Precipitation
Forecast for 2017-12-16 18:00 UTC. Updated 2 hours ago

Ground ~20,000 ft ~40,000 ft Winds

METAR

WMKC 161500Z 10003KT 070V140 9999 SCT020 BKN280 27/24 Q1013

TAF

Not found

Frequencies

Ground 121.60 MHz KOTA BHARU GND
Tower 122.50 MHz KOTA BHARU TWR
Warning: Do not use this data for real-world aviation or navigation. No guarantee of current accuracy is given.